»·PEaware :: N115LW S36-KUAO

N115LW :: S36-KUAO

FLIGHT INFORMATION

Flight Status: Arrived
Operator: Privately registered:
United States
More flights under this callsign
Pilot: John L. (25722)
Aircraft: CESSNA 172 SKYHAWK
(C172)
More flights by this aircraft type
Origin: S36 Norman Grier Field
United States
Destination: KUAO Aurora State
United States
More flights between these airports :: More routes between these airports
Route: OLM V165 UBG
File this flight plan on PilotEdge
Remarks:
Altitude:
(Current/Filed)
4,000ft
Speed:
(Current/Filed)
120kts
Departed: 17-Nov-19 01:33 PM
Arrived: 17-Nov-19 03:01 PM
Distance/Time
Traveled:
129nm/1:28
Distance/Time
To Go:
Arrived

Flight Plot

Page will automatically refresh every two minutes.

Flight plan parsing failed; only flown route is shown


Map Options




Map Legend


Flown Route
Filed Route
Departure Airport
Arrival Airport
Navaid (VOR, NDB)
Fix

Horizontal Profiles

Position Reports

Time Latitude Longitude Heading Altitude Ground
Speed
17-Nov-19 13:16 47.340163 -122.103767 0 476ft 0kts
17-Nov-19 13:17 47.340163 -122.103767 171 476ft 0kts
17-Nov-19 13:18 47.340163 -122.103767 171 476ft 0kts
17-Nov-19 13:19 47.340163 -122.103767 171 476ft 0kts
17-Nov-19 13:20 47.340163 -122.103767 171 476ft 0kts
17-Nov-19 13:21 47.340086 -122.103805 225 476ft 1kts
17-Nov-19 13:22 47.341178 -122.104209 351 476ft 0kts
17-Nov-19 13:23 47.341178 -122.104209 351 476ft 0kts
17-Nov-19 13:24 47.341178 -122.104209 351 476ft 0kts
17-Nov-19 13:25 47.341178 -122.104209 351 476ft 0kts
17-Nov-19 13:26 47.341178 -122.104209 351 476ft 0kts
17-Nov-19 13:27 47.341178 -122.104209 351 476ft 0kts
17-Nov-19 13:28 47.341178 -122.104209 351 476ft 0kts
17-Nov-19 13:29 47.341178 -122.104209 351 476ft 0kts
17-Nov-19 13:30 47.341178 -122.104209 351 476ft 0kts
17-Nov-19 13:31 47.341349 -122.104242 352 476ft 0kts
17-Nov-19 13:32 47.336040 -122.103259 170 611ft 56kts
17-Nov-19 13:33 47.321750 -122.110651 255 1308ft 76kts
17-Nov-19 13:34 47.318177 -122.138656 241 2033ft 74kts
17-Nov-19 13:35 47.308705 -122.164854 233 2762ft 73kts
17-Nov-19 13:36 47.298228 -122.188976 232 3436ft 72kts
17-Nov-19 13:37 47.287018 -122.213863 233 4015ft 86kts
17-Nov-19 13:38 47.271318 -122.248795 234 4017ft 109kts
17-Nov-19 13:39 47.254280 -122.286408 234 4019ft 111kts
17-Nov-19 13:40 47.238178 -122.321855 234 4021ft 108kts
17-Nov-19 13:41 47.221849 -122.357737 235 4023ft 107kts
17-Nov-19 13:42 47.205142 -122.394395 235 4025ft 107kts
17-Nov-19 13:43 47.188489 -122.430900 235 4025ft 107kts
17-Nov-19 13:44 47.171798 -122.467434 235 4025ft 107kts
17-Nov-19 13:45 47.155132 -122.503865 235 4024ft 107kts
17-Nov-19 13:46 47.138445 -122.540292 234 4023ft 107kts
17-Nov-19 13:47 47.121703 -122.576792 234 4022ft 107kts
17-Nov-19 13:48 47.104929 -122.613314 234 4020ft 108kts
17-Nov-19 13:49 47.088056 -122.649999 233 4019ft 108kts
17-Nov-19 13:50 47.071170 -122.686656 232 4020ft 108kts
17-Nov-19 13:51 47.054838 -122.722050 232 4020ft 108kts
17-Nov-19 13:52 47.040374 -122.753363 232 4021ft 108kts
17-Nov-19 13:53 47.025204 -122.786175 232 4022ft 107kts
17-Nov-19 13:54 47.010627 -122.817671 232 4023ft 107kts
17-Nov-19 13:55 46.992954 -122.855811 232 4024ft 106kts
17-Nov-19 13:56 46.976472 -122.891330 233 4024ft 105kts
17-Nov-19 13:57 46.950288 -122.908518 200 4023ft 104kts
17-Nov-19 13:58 46.922404 -122.920538 199 4023ft 104kts
17-Nov-19 13:59 46.894338 -122.931845 198 3981ft 104kts
17-Nov-19 14:00 46.866370 -122.942859 198 3984ft 103kts
17-Nov-19 14:01 46.838540 -122.953736 197 3987ft 103kts
17-Nov-19 14:02 46.810883 -122.964502 197 4111ft 94kts
17-Nov-19 14:03 46.792517 -122.971363 201 5098ft 64kts
17-Nov-19 14:04 46.775073 -122.978078 202 5778ft 65kts
17-Nov-19 14:05 46.753725 -122.986577 200 6001ft 100kts
17-Nov-19 14:06 46.726565 -122.997193 199 6000ft 100kts
17-Nov-19 14:07 46.699586 -123.007687 200 6000ft 100kts
17-Nov-19 14:08 46.672579 -123.018160 200 6001ft 101kts
17-Nov-19 14:09 46.645389 -123.028692 199 6002ft 101kts
17-Nov-19 14:10 46.618225 -123.039162 201 6000ft 101kts
17-Nov-19 14:11 46.591088 -123.049650 199 6017ft 102kts
17-Nov-19 14:12 46.563374 -123.060316 199 6016ft 103kts
17-Nov-19 14:13 46.535697 -123.071003 198 6021ft 103kts
17-Nov-19 14:14 46.507936 -123.081664 200 6021ft 103kts
17-Nov-19 14:15 46.480209 -123.092355 199 6020ft 103kts
17-Nov-19 14:16 46.452551 -123.102962 199 6020ft 103kts
17-Nov-19 14:17 46.424691 -123.112189 185 6020ft 105kts
17-Nov-19 14:18 46.395132 -123.109437 183 6023ft 106kts
17-Nov-19 14:19 46.365733 -123.105960 180 6025ft 105kts
17-Nov-19 14:20 46.336523 -123.102249 182 6032ft 106kts
17-Nov-19 14:21 46.307354 -123.098531 181 6038ft 105kts
17-Nov-19 14:22 46.277988 -123.094781 181 6045ft 105kts
17-Nov-19 14:23 46.248744 -123.091027 181 6050ft 106kts
17-Nov-19 14:24 46.219500 -123.087287 180 6053ft 106kts
17-Nov-19 14:25 46.190387 -123.083561 180 6053ft 106kts
17-Nov-19 14:26 46.161351 -123.079849 180 6053ft 106kts
17-Nov-19 14:27 46.132031 -123.076106 180 6053ft 106kts
17-Nov-19 14:28 46.102781 -123.072376 180 6053ft 105kts
17-Nov-19 14:29 46.073380 -123.068630 180 6052ft 105kts
17-Nov-19 14:30 46.044103 -123.064906 180 6052ft 105kts
17-Nov-19 14:31 46.014859 -123.061199 180 6015ft 108kts
17-Nov-19 14:33 45.985072 -123.057409 180 5988ft 106kts
17-Nov-19 14:34 45.955787 -123.053690 180 5988ft 105kts
17-Nov-19 14:35 45.926657 -123.049998 180 5988ft 105kts
17-Nov-19 14:36 45.897530 -123.046312 179 5990ft 105kts
17-Nov-19 14:37 45.868422 -123.042630 179 5992ft 106kts
17-Nov-19 14:38 45.839039 -123.038913 178 5992ft 106kts
17-Nov-19 14:39 45.809624 -123.035201 178 5992ft 106kts
17-Nov-19 14:40 45.780997 -123.031593 178 5992ft 106kts
17-Nov-19 14:41 45.751656 -123.027905 177 5992ft 106kts
17-Nov-19 14:42 45.721819 -123.024212 173 5975ft 117kts
17-Nov-19 14:43 45.686050 -123.019628 175 5990ft 137kts
17-Nov-19 14:44 45.647505 -123.014816 177 5981ft 139kts
17-Nov-19 14:45 45.609237 -123.010022 179 5981ft 137kts
17-Nov-19 14:46 45.583170 -122.973858 118 5600ft 142kts
17-Nov-19 14:47 45.561867 -122.926489 121 5002ft 140kts
17-Nov-19 14:48 45.541997 -122.883696 120 4394ft 124kts
17-Nov-19 14:49 45.523854 -122.844607 118 3985ft 117kts
17-Nov-19 14:49 45.508609 -122.811762 118 3983ft 120kts
17-Nov-19 14:51 45.487110 -122.765598 117 3984ft 118kts
17-Nov-19 14:52 45.463586 -122.734348 170 3919ft 130kts
17-Nov-19 14:53 45.428868 -122.737785 184 3524ft 119kts
17-Nov-19 14:53 45.402363 -122.742540 182 3113ft 108kts
17-Nov-19 14:54 45.376537 -122.747095 182 2651ft 84kts
17-Nov-19 14:56 45.349698 -122.751833 183 2117ft 83kts
17-Nov-19 14:56 45.330493 -122.755729 185 1734ft 84kts
17-Nov-19 14:57 45.307314 -122.759579 185 1288ft 83kts
17-Nov-19 14:59 45.280159 -122.764094 187 734ft 84kts
17-Nov-19 14:59 45.261577 -122.767313 187 396ft 78kts
17-Nov-19 15:00 45.248152 -122.769789 185 197ft 15kts
17-Nov-19 15:01 45.246890 -122.768890 172 197ft 2kts
17-Nov-19 15:02 45.243194 -122.769543 187 197ft 18kts
17-Nov-19 15:03 45.242446 -122.767866 182 196ft 0kts
17-Nov-19 15:04 45.242446 -122.767866 182 196ft 0kts
17-Nov-19 15:05 45.242446 -122.767866 182 196ft 0kts
17-Nov-19 15:06 45.242446 -122.767866 182 196ft 0kts
17-Nov-19 15:07 45.242446 -122.767866 182 196ft 0kts
17-Nov-19 15:08 45.242446 -122.767866 182 196ft 0kts
17-Nov-19 15:09 45.242446 -122.767866 182 196ft 0kts
17-Nov-19 15:10 45.242446 -122.767866 182 196ft 0kts
17-Nov-19 15:11 45.242446 -122.767866 182 196ft 0kts
17-Nov-19 15:12 45.242446 -122.767866 182 196ft 0kts
17-Nov-19 15:13 45.242446 -122.767866 182 196ft 0kts
17-Nov-19 15:14 45.242446 -122.767866 182 196ft 0kts

Navigation Log

Ident Type
Flight plan parsing failed, navigation log unavailable